Time;durP1;ratioP1;P1;durP2;ratioP2;P2;SDS_P1;SDS_P2;PMS_P1;PMS_P2;Temp;Humidity;BMP_temperature;BMP_pressure;BME280_temperature;BME280_humidity;BME280_pressure;Samples;Min_cycle;Max_cycle;Signal;HPM_P1;HPM_P2
2022/05/01 00:02:05;;;;;;;3.75;2.80;;;10.60;58.70;;;;;;5043225;28;20021;-80
2022/05/01 00:04:31;;;;;;;3.83;2.63;;;10.60;58.80;;;;;;5021383;28;20025;-80
2022/05/01 00:06:57;;;;;;;4.15;2.70;;;10.50;58.70;;;;;;5050664;28;20085;-80
2022/05/01 00:09:23;;;;;;;4.22;2.55;;;10.50;58.70;;;;;;5048399;28;20044;-80
2022/05/01 00:11:48;;;;;;;3.77;2.70;;;10.50;58.80;;;;;;5051002;28;20491;-80
2022/05/01 00:14:14;;;;;;;3.17;2.25;;;10.40;58.70;;;;;;5062676;28;20036;-81
2022/05/01 00:16:41;;;;;;;3.83;2.85;;;10.40;58.80;;;;;;5043381;28;20387;-81
2022/05/01 00:19:10;;;;;;;3.80;2.40;;;10.40;58.80;;;;;;5050988;28;20031;-80
2022/05/01 00:21:37;;;;;;;3.80;2.40;;;10.30;58.80;;;;;;5030420;28;20028;-80
2022/05/01 00:24:03;;;;;;;4.75;2.50;;;10.20;58.90;;;;;;5039561;28;20041;-81
2022/05/01 00:26:29;;;;;;;3.45;2.47;;;10.20;58.80;;;;;;5038405;28;20476;-80
2022/05/01 00:28:55;;;;;;;5.07;3.00;;;10.20;58.90;;;;;;5026338;28;20165;-81
2022/05/01 00:31:21;;;;;;;4.00;2.63;;;10.10;59.00;;;;;;5042772;28;20313;-80
2022/05/01 00:36:31;;;;;;;6.40;2.70;;;10.00;59.00;;;;;;5035456;28;20033;-80
2022/05/01 00:39:01;;;;;;;4.47;2.65;;;9.90;58.90;;;;;;5057363;28;20112;-80
2022/05/01 00:41:27;;;;;;;4.22;2.72;;;9.90;59.00;;;;;;5027553;28;20488;-81
2022/05/01 00:44:00;;;;;;;5.60;2.83;;;9.80;59.00;;;;;;5030609;28;21269;-80
2022/05/01 00:46:26;;;;;;;4.43;2.70;;;9.80;59.50;;;;;;5029479;28;20105;-80
2022/05/01 00:48:52;;;;;;;4.22;2.60;;;9.70;59.00;;;;;;5039170;28;20032;-80
2022/05/01 00:51:20;;;;;;;4.38;2.83;;;9.60;59.10;;;;;;5023385;28;20024;-80
2022/05/01 00:53:48;;;;;;;4.00;2.90;;;9.60;59.20;;;;;;5054547;28;20690;-80
2022/05/01 00:56:14;;;;;;;4.33;2.70;;;9.50;59.30;;;;;;5067203;28;20449;-80
2022/05/01 00:58:40;;;;;;;4.32;2.72;;;9.40;59.30;;;;;;5038008;28;20030;-80
2022/05/01 01:01:06;;;;;;;4.63;2.78;;;9.30;59.30;;;;;;5046060;28;20056;-80
2022/05/01 01:03:32;;;;;;;5.07;2.85;;;9.30;59.40;;;;;;5023107;28;20032;-80
2022/05/01 01:05:58;;;;;;;4.23;2.50;;;9.20;59.50;;;;;;5030488;28;20324;-80
2022/05/01 01:08:23;;;;;;;4.38;2.80;;;9.20;59.50;;;;;;5057697;28;20033;-80
2022/05/01 01:10:49;;;;;;;4.30;2.70;;;9.10;59.50;;;;;;5045984;28;20707;-80
2022/05/01 01:13:14;;;;;;;3.80;2.67;;;9.10;59.60;;;;;;5051123;28;20177;-80
2022/05/01 01:15:41;;;;;;;4.30;2.70;;;9.00;59.50;;;;;;5034080;28;20100;-80
2022/05/01 01:18:06;;;;;;;5.00;3.47;;;9.00;59.50;;;;;;5038968;28;20033;-80
2022/05/01 01:20:32;;;;;;;4.77;3.00;;;8.90;59.50;;;;;;5027088;28;20039;-80
2022/05/01 01:23:00;;;;;;;3.47;2.53;;;8.80;59.50;;;;;;5033024;28;20208;-80
2022/05/01 01:25:31;;;;;;;3.95;2.85;;;8.80;59.60;;;;;;5041331;28;20224;-80
2022/05/01 01:28:03;;;;;;;4.63;2.53;;;8.70;59.60;;;;;;5048841;28;20719;-80
2022/05/01 01:33:18;;;;;;;4.32;3.00;;;8.60;59.80;;;;;;5056180;28;20029;-80
2022/05/01 01:35:46;;;;;;;5.50;3.20;;;8.60;59.60;;;;;;4998719;28;20525;-80
2022/05/01 01:38:12;;;;;;;5.15;3.25;;;8.50;59.80;;;;;;5074827;28;20288;-80
2022/05/01 01:40:54;;;;;;;4.60;3.03;;;8.40;59.80;;;;;;5030391;28;20044;-80
2022/05/01 01:43:25;;;;;;;4.90;3.22;;;8.40;60.70;;;;;;5051923;28;20033;-80
2022/05/01 01:45:51;;;;;;;4.55;2.90;;;8.30;60.20;;;;;;5029666;28;20052;-80
2022/05/01 01:48:20;;;;;;;4.63;3.20;;;8.30;60.00;;;;;;5064274;28;20558;-80
2022/05/01 01:51:03;;;;;;;4.73;3.10;;;8.20;60.20;;;;;;5021362;28;20444;-80
2022/05/01 01:53:30;;;;;;;3.88;2.75;;;8.20;61.10;;;;;;5064406;28;20532;-80
2022/05/01 01:55:57;;;;;;;4.90;3.15;;;8.10;60.20;;;;;;5052681;28;20500;-80
2022/05/01 01:58:26;;;;;;;5.38;2.90;;;8.10;60.20;;;;;;5033027;28;20028;-80
2022/05/01 02:00:52;;;;;;;5.00;3.00;;;8.10;60.30;;;;;;5054620;28;20640;-80
2022/05/01 02:03:19;;;;;;;5.00;3.10;;;8.10;60.30;;;;;;5033365;28;20081;-80
2022/05/01 02:05:46;;;;;;;4.68;3.00;;;8.00;60.20;;;;;;5038484;28;26460;-80
2022/05/01 02:08:13;;;;;;;4.45;3.10;;;8.00;60.30;;;;;;5024849;28;20428;-80
2022/05/01 02:10:39;;;;;;;4.75;2.95;;;8.00;60.40;;;;;;5044267;28;20233;-80
2022/05/01 02:13:06;;;;;;;5.10;3.00;;;7.90;60.30;;;;;;5038827;28;20039;-80
2022/05/01 02:15:33;;;;;;;4.75;3.03;;;7.90;60.40;;;;;;5059472;28;20036;-80
2022/05/01 02:17:59;;;;;;;5.22;3.03;;;7.80;60.40;;;;;;5061671;28;20551;-80
2022/05/01 02:21:33;;;;;;;4.65;2.95;;;7.80;60.40;;;;;;5052660;28;20032;-80
2022/05/01 02:23:15;;;;;;;5.20;3.35;;;7.80;60.60;;;;;;5037667;28;20295;-80
2022/05/01 02:25:41;;;;;;;4.37;2.80;;;7.70;60.30;;;;;;5040546;28;20048;-80
2022/05/01 02:28:07;;;;;;;6.53;3.63;;;7.70;60.40;;;;;;5065563;28;20484;-80
2022/05/01 02:30:32;;;;;;;5.93;3.40;;;7.60;60.60;;;;;;5051025;28;20295;-80
2022/05/01 02:32:58;;;;;;;5.53;3.38;;;7.60;60.60;;;;;;5042407;28;20253;-80
2022/05/01 02:35:23;;;;;;;5.80;3.20;;;7.50;60.60;;;;;;5051248;28;20040;-80
2022/05/01 02:37:49;;;;;;;5.60;3.30;;;7.50;60.70;;;;;;5021458;28;20138;-80
2022/05/01 02:40:15;;;;;;;5.67;3.13;;;7.40;60.60;;;;;;5044539;28;20294;-80
2022/05/01 02:42:42;;;;;;;6.32;3.70;;;7.40;60.80;;;;;;5057462;28;20144;-80
2022/05/01 02:45:08;;;;;;;5.70;3.50;;;7.40;60.80;;;;;;5042916;28;20054;-80
2022/05/01 02:47:34;;;;;;;7.07;3.90;;;7.30;60.90;;;;;;5037013;28;20058;-80
2022/05/01 02:50:00;;;;;;;5.63;3.40;;;7.30;61.00;;;;;;5036777;28;20444;-80
2022/05/01 02:52:26;;;;;;;5.90;3.22;;;7.30;61.00;;;;;;5024445;28;20033;-80
2022/05/01 02:54:52;;;;;;;6.32;3.78;;;7.20;61.00;;;;;;5021005;28;20307;-80
2022/05/01 02:57:17;;;;;;;5.67;3.40;;;7.20;61.00;;;;;;5050800;28;20055;-80
2022/05/01 02:59:43;;;;;;;6.80;3.47;;;7.20;61.00;;;;;;5061338;28;20330;-80
2022/05/01 03:02:09;;;;;;;6.80;3.53;;;7.10;61.00;;;;;;5048726;28;20066;-80
2022/05/01 03:04:35;;;;;;;7.05;3.80;;;7.10;61.00;;;;;;5039834;28;20039;-80
2022/05/01 03:07:04;;;;;;;8.07;4.33;;;7.10;61.20;;;;;;5034913;28;20407;-80
2022/05/01 03:09:30;;;;;;;7.65;4.20;;;7.00;61.20;;;;;;5058218;28;20064;-80
2022/05/01 03:11:55;;;;;;;6.18;3.63;;;7.00;61.20;;;;;;5024534;28;20620;-80
2022/05/01 03:14:21;;;;;;;8.07;4.37;;;7.00;61.30;;;;;;5060784;28;20079;-80
2022/05/01 03:16:47;;;;;;;7.57;4.07;;;6.90;61.30;;;;;;5059718;28;20465;-81
2022/05/01 03:22:16;;;;;;;7.37;4.17;;;6.90;61.30;;;;;;5053208;28;20289;-80
2022/05/01 03:24:42;;;;;;;7.03;3.78;;;6.80;61.30;;;;;;5023504;28;20538;-80
2022/05/01 03:27:09;;;;;;;6.10;3.90;;;6.80;61.30;;;;;;5044454;28;20039;-81
2022/05/01 03:29:36;;;;;;;6.28;3.80;;;6.80;61.30;;;;;;5056113;28;20061;-81
2022/05/01 03:32:07;;;;;;;7.38;3.50;;;6.70;61.30;;;;;;5053584;28;20028;-81
2022/05/01 03:34:33;;;;;;;6.97;3.70;;;6.70;61.20;;;;;;5063544;28;20082;-81
2022/05/01 03:36:58;;;;;;;5.63;3.20;;;6.70;61.20;;;;;;5049663;28;20336;-81
2022/05/01 03:39:24;;;;;;;6.00;3.57;;;6.60;61.30;;;;;;5042856;28;20064;-81
2022/05/01 03:41:49;;;;;;;6.70;3.05;;;6.60;61.40;;;;;;5039021;28;20044;-80
2022/05/01 03:44:15;;;;;;;5.30;3.10;;;6.60;61.30;;;;;;5045562;28;20063;-80
2022/05/01 03:46:41;;;;;;;6.38;3.70;;;6.60;61.40;;;;;;5028922;28;20669;-80
2022/05/01 03:49:06;;;;;;;7.33;3.60;;;6.50;61.50;;;;;;5059277;28;20075;-80
2022/05/01 03:51:33;;;;;;;6.15;3.58;;;6.50;61.40;;;;;;5043862;28;20040;-80
2022/05/01 03:54:02;;;;;;;7.13;3.73;;;6.40;61.40;;;;;;5042727;28;20517;-80
2022/05/01 03:56:28;;;;;;;6.85;3.95;;;6.40;61.60;;;;;;5052837;28;20032;-80
2022/05/01 03:58:54;;;;;;;7.32;3.92;;;6.40;61.60;;;;;;5040621;28;20495;-80
2022/05/01 04:01:19;;;;;;;7.17;3.70;;;6.30;61.60;;;;;;5039007;28;20031;-80
2022/05/01 04:03:46;;;;;;;6.30;3.63;;;6.30;61.70;;;;;;5037188;28;20825;-81
2022/05/01 04:06:11;;;;;;;7.18;4.40;;;6.30;61.70;;;;;;5056022;28;20055;-80
2022/05/01 04:08:37;;;;;;;7.27;3.80;;;6.20;61.70;;;;;;5033439;28;20032;-80
2022/05/01 04:11:03;;;;;;;6.90;3.80;;;6.20;61.70;;;;;;5044502;28;20059;-80
2022/05/01 04:13:29;;;;;;;8.00;3.87;;;6.20;61.80;;;;;;5035101;28;20345;-80
2022/05/01 04:15:54;;;;;;;6.47;4.03;;;6.20;61.90;;;;;;5057906;28;20490;-81
2022/05/01 04:18:21;;;;;;;7.80;3.70;;;6.10;61.70;;;;;;5054119;28;20041;-80
2022/05/01 04:20:47;;;;;;;7.00;3.70;;;6.10;61.80;;;;;;5039462;28;20021;-80
2022/05/01 04:23:13;;;;;;;7.25;3.80;;;6.10;61.80;;;;;;5035570;28;20035;-80
2022/05/01 04:25:40;;;;;;;6.45;3.50;;;6.10;61.90;;;;;;5039312;28;20032;-80
2022/05/01 04:28:11;;;;;;;7.10;3.93;;;6.00;61.80;;;;;;5063352;28;20032;-80
2022/05/01 04:30:40;;;;;;;5.60;3.40;;;6.00;62.20;;;;;;5032942;28;20714;-80
2022/05/01 04:33:12;;;;;;;6.93;3.78;;;6.00;61.90;;;;;;5049529;28;20388;-80
2022/05/01 04:35:43;;;;;;;7.78;4.03;;;6.00;62.20;;;;;;5027714;28;20044;-80
2022/05/01 04:38:21;;;;;;;8.35;4.05;;;5.90;62.30;;;;;;5031057;28;20043;-80
2022/05/01 04:40:48;;;;;;;7.53;3.80;;;5.90;62.70;;;;;;5017045;28;20593;-81
2022/05/01 04:43:19;;;;;;;8.18;4.03;;;5.90;62.20;;;;;;5062020;28;20407;-81
2022/05/01 04:45:50;;;;;;;7.22;3.90;;;5.90;62.50;;;;;;5028868;28;20345;-81
2022/05/01 04:48:17;;;;;;;7.45;4.05;;;5.90;62.60;;;;;;5049895;28;20249;-81
2022/05/01 04:50:44;;;;;;;8.30;4.57;;;5.90;62.50;;;;;;5046586;28;20028;-81
2022/05/01 04:53:11;;;;;;;8.07;4.20;;;5.90;62.60;;;;;;5040816;28;20143;-80
2022/05/01 04:55:41;;;;;;;7.35;4.25;;;5.90;62.70;;;;;;5021410;28;20028;-80
2022/05/01 04:58:08;;;;;;;6.90;3.90;;;5.90;62.70;;;;;;5055649;28;20032;-80
2022/05/01 05:00:34;;;;;;;6.45;4.05;;;5.90;63.40;;;;;;5022244;28;20045;-81
2022/05/01 05:03:00;;;;;;;7.55;4.38;;;6.00;62.80;;;;;;5057728;28;20032;-80
2022/05/01 05:05:27;;;;;;;6.73;3.60;;;6.00;62.90;;;;;;5015047;28;20170;-81
2022/05/01 05:07:53;;;;;;;6.78;3.33;;;6.00;63.00;;;;;;5036920;28;20564;-80
2022/05/01 05:10:19;;;;;;;6.95;3.45;;;6.00;63.00;;;;;;5052189;28;20032;-80
2022/05/01 05:12:47;;;;;;;6.47;3.87;;;6.10;63.10;;;;;;5026344;28;20656;-80
2022/05/01 05:15:15;;;;;;;6.90;3.58;;;6.10;63.40;;;;;;5034164;28;20460;-80
2022/05/01 05:17:41;;;;;;;7.13;3.63;;;6.20;63.50;;;;;;5034018;28;20445;-81
2022/05/01 05:20:10;;;;;;;6.43;3.70;;;6.20;63.50;;;;;;5052207;28;20465;-80
2022/05/01 05:22:36;;;;;;;6.40;3.50;;;6.30;63.70;;;;;;5030547;28;20253;-80
2022/05/01 05:25:03;;;;;;;7.22;3.88;;;6.30;63.70;;;;;;5043755;28;20040;-80
2022/05/01 05:27:28;;;;;;;6.57;3.72;;;6.40;64.00;;;;;;5037509;28;20081;-80
2022/05/01 05:29:56;;;;;;;4.97;3.10;;;6.50;64.20;;;;;;5066125;28;20480;-80
2022/05/01 05:32:23;;;;;;;5.65;3.50;;;6.50;64.30;;;;;;5039726;28;20028;-81
2022/05/01 05:34:49;;;;;;;6.97;3.85;;;6.60;64.40;;;;;;5044490;28;20696;-80
2022/05/01 05:37:19;;;;;;;7.20;3.80;;;6.70;64.60;;;;;;5027002;28;20042;-81
2022/05/01 05:39:45;;;;;;;6.20;3.50;;;6.80;65.00;;;;;;5041068;28;20032;-80
2022/05/01 05:42:11;;;;;;;6.23;3.70;;;6.90;64.80;;;;;;5031194;28;20046;-80
2022/05/01 05:44:38;;;;;;;5.10;3.15;;;6.90;64.90;;;;;;5048981;28;20232;-80
2022/05/01 05:47:04;;;;;;;5.93;3.72;;;7.10;65.10;;;;;;5024083;28;20408;-81
2022/05/01 05:49:31;;;;;;;5.40;3.67;;;7.20;65.10;;;;;;5040802;28;20036;-81
2022/05/01 05:51:57;;;;;;;6.32;3.55;;;7.30;65.20;;;;;;5026696;28;20032;-80
2022/05/01 05:54:23;;;;;;;5.37;3.23;;;7.40;65.20;;;;;;5064108;28;20044;-80
2022/05/01 05:56:49;;;;;;;5.93;3.55;;;7.50;65.30;;;;;;5029096;28;20275;-81
2022/05/01 05:59:15;;;;;;;7.60;4.10;;;7.50;65.40;;;;;;5044827;28;20062;-80
2022/05/01 06:01:41;;;;;;;6.40;3.83;;;7.60;65.50;;;;;;5014487;28;20547;-80
2022/05/01 06:04:06;;;;;;;7.57;4.30;;;7.70;65.70;;;;;;5059417;28;20040;-80
2022/05/01 06:06:33;;;;;;;6.20;3.97;;;7.90;65.90;;;;;;5034744;28;20040;-81
2022/05/01 06:08:59;;;;;;;7.30;4.38;;;8.00;65.90;;;;;;5049934;28;20115;-81
2022/05/01 06:11:24;;;;;;;6.67;4.13;;;8.10;66.10;;;;;;5045011;28;20024;-80
2022/05/01 06:13:51;;;;;;;6.18;4.05;;;8.20;66.20;;;;;;5042483;28;20698;-80
2022/05/01 06:16:17;;;;;;;6.72;4.10;;;8.30;66.20;;;;;;5052667;28;20381;-80
2022/05/01 06:18:43;;;;;;;7.60;4.37;;;8.40;66.10;;;;;;5024849;28;20272;-81
2022/05/01 06:21:08;;;;;;;7.22;4.55;;;8.50;66.30;;;;;;5059353;28;20456;-81
2022/05/01 06:23:35;;;;;;;7.07;4.80;;;8.60;66.40;;;;;;5035801;28;20352;-80
2022/05/01 06:26:03;;;;;;;6.78;4.40;;;8.80;66.80;;;;;;5048163;28;20320;-81
2022/05/01 06:28:28;;;;;;;7.22;4.47;;;8.90;66.80;;;;;;5063246;28;20029;-81
2022/05/01 06:30:55;;;;;;;6.10;3.50;;;9.00;66.80;;;;;;5038456;28;20142;-81
2022/05/01 06:33:22;;;;;;;8.00;4.90;;;9.20;67.00;;;;;;5023723;28;20300;-81
2022/05/01 06:35:49;;;;;;;7.68;4.93;;;9.30;67.10;;;;;;5040296;28;20038;-81
2022/05/01 06:38:15;;;;;;;9.85;4.47;;;9.50;67.20;;;;;;5044017;28;20032;-81
2022/05/01 06:40:43;;;;;;;7.10;4.53;;;9.60;67.20;;;;;;5038843;28;20045;-81
2022/05/01 06:43:14;;;;;;;7.82;5.00;;;9.80;67.40;;;;;;5034621;28;20431;-81
2022/05/01 06:45:41;;;;;;;7.43;4.88;;;9.90;67.30;;;;;;5067509;28;20079;-81
2022/05/01 06:48:10;;;;;;;8.30;4.93;;;10.10;67.10;;;;;;5044990;28;20033;-81
2022/05/01 06:50:37;;;;;;;6.95;4.50;;;10.30;67.20;;;;;;5047267;28;20422;-81
2022/05/01 06:53:03;;;;;;;8.13;5.00;;;10.40;67.30;;;;;;5051159;28;20608;-81
2022/05/01 06:55:30;;;;;;;7.28;4.53;;;10.50;67.50;;;;;;5028782;28;20484;-81
2022/05/01 06:57:56;;;;;;;8.68;4.55;;;10.70;67.80;;;;;;5061824;28;20093;-81
2022/05/01 07:00:22;;;;;;;7.43;4.65;;;10.90;68.00;;;;;;5056152;28;20479;-81
2022/05/01 07:02:49;;;;;;;6.72;4.45;;;11.20;68.10;;;;;;5016763;28;20089;-81
2022/05/01 07:05:15;;;;;;;7.73;4.70;;;11.30;68.20;;;;;;5040363;28;20164;-81
2022/05/01 07:07:41;;;;;;;7.85;4.32;;;11.60;68.80;;;;;;5046201;28;20124;-81
2022/05/01 07:10:08;;;;;;;7.95;5.20;;;11.80;67.70;;;;;;5032027;28;20037;-81
2022/05/01 07:12:34;;;;;;;7.85;4.85;;;12.00;67.50;;;;;;5049101;28;20040;-81
2022/05/01 07:14:59;;;;;;;8.27;5.03;;;12.20;67.70;;;;;;5029726;28;20079;-81
2022/05/01 07:17:25;;;;;;;8.50;4.75;;;12.40;67.80;;;;;;5040798;28;20060;-81
2022/05/01 07:19:51;;;;;;;7.33;4.63;;;12.60;68.00;;;;;;5023328;28;20045;-81
2022/05/01 07:22:17;;;;;;;7.97;4.63;;;12.80;68.30;;;;;;5046547;28;20037;-81
2022/05/01 07:24:43;;;;;;;7.78;4.40;;;13.10;68.50;;;;;;5045999;28;20626;-81
2022/05/01 07:27:09;;;;;;;8.07;4.53;;;13.40;68.60;;;;;;5036800;28;20112;-81
2022/05/01 07:29:34;;;;;;;7.88;3.95;;;13.70;68.40;;;;;;5032771;28;20469;-81
2022/05/01 07:32:00;;;;;;;6.57;4.10;;;14.00;68.30;;;;;;5058956;28;20114;-81
2022/05/01 07:34:25;;;;;;;6.93;4.68;;;14.30;68.20;;;;;;5019224;28;20094;-81
2022/05/01 07:36:51;;;;;;;7.50;4.30;;;14.60;67.90;;;;;;5051946;28;20055;-81
2022/05/01 07:39:17;;;;;;;8.80;4.88;;;14.90;68.00;;;;;;5047864;28;20041;-81
2022/05/01 07:41:42;;;;;;;7.77;4.73;;;15.20;67.80;;;;;;5024743;28;20032;-81
2022/05/01 07:44:11;;;;;;;7.97;5.07;;;15.60;67.40;;;;;;5014953;28;20029;-81
2022/05/01 07:46:41;;;;;;;8.17;4.73;;;15.80;66.30;;;;;;5038702;28;20437;-81
2022/05/01 07:49:10;;;;;;;8.43;4.88;;;16.00;65.80;;;;;;5029825;28;20110;-82
2022/05/01 07:51:37;;;;;;;7.82;4.72;;;16.20;65.40;;;;;;5050146;28;20036;-81
2022/05/01 07:54:04;;;;;;;7.53;4.40;;;16.40;65.50;;;;;;5052670;28;20110;-81
2022/05/01 07:56:31;;;;;;;8.02;4.30;;;16.60;65.60;;;;;;5040435;28;20265;-81
2022/05/01 07:58:57;;;;;;;8.87;4.63;;;16.90;66.20;;;;;;5053229;28;20025;-81
2022/05/01 08:01:23;;;;;;;6.90;4.20;;;17.30;66.60;;;;;;5046421;28;20282;-81
2022/05/01 08:06:35;;;;;;;5.20;3.72;;;18.00;65.00;;;;;;5032012;28;20040;-81
2022/05/01 08:09:03;;;;;;;5.10;3.22;;;18.40;65.00;;;;;;5038600;28;20029;-81
2022/05/01 08:11:29;;;;;;;5.17;3.57;;;18.70;65.00;;;;;;5025201;28;20465;-82
2022/05/01 08:13:55;;;;;;;5.63;3.95;;;19.00;64.20;;;;;;5038140;28;20029;-82
2022/05/01 08:16:21;;;;;;;5.37;3.53;;;19.40;64.30;;;;;;5044953;28;20232;-81
2022/05/01 08:21:32;;;;;;;5.07;3.65;;;20.20;64.90;;;;;;5039598;28;20416;-82
2022/05/01 08:23:58;;;;;;;4.43;3.30;;;20.70;64.50;;;;;;5043730;28;20021;-82
2022/05/01 08:26:24;;;;;;;5.15;3.95;;;21.20;64.40;;;;;;5050640;28;20202;-82
2022/05/01 08:28:54;;;;;;;5.60;3.83;;;21.80;63.90;;;;;;5040086;28;20157;-83
2022/05/01 08:31:20;;;;;;;5.25;3.92;;;22.30;62.40;;;;;;5032457;28;20267;-82
2022/05/01 08:33:46;;;;;;;5.40;3.72;;;22.90;63.20;;;;;;5044874;28;20136;-83
2022/05/01 08:36:12;;;;;;;4.65;3.65;;;23.50;62.30;;;;;;5040347;28;20669;-82
2022/05/01 08:38:39;;;;;;;4.20;3.60;;;24.00;61.10;;;;;;5025860;28;20035;-82
2022/05/01 08:41:07;;;;;;;4.78;3.63;;;24.50;59.30;;;;;;5051351;28;20111;-82
2022/05/01 08:43:34;;;;;;;4.00;3.45;;;24.80;57.00;;;;;;5044369;28;20530;-82
2022/05/01 08:46:08;;;;;;;4.40;3.53;;;25.00;55.00;;;;;;5041514;28;20083;-82
2022/05/01 08:48:37;;;;;;;4.43;3.42;;;25.10;52.00;;;;;;5061182;28;20052;-82
2022/05/01 08:51:04;;;;;;;4.27;3.50;;;25.10;54.10;;;;;;5028868;28;20035;-82
2022/05/01 08:53:31;;;;;;;4.32;3.28;;;25.30;53.50;;;;;;5031117;28;20536;-82
2022/05/01 08:55:58;;;;;;;3.88;3.38;;;25.30;52.80;;;;;;5039315;28;20508;-82
2022/05/01 08:58:26;;;;;;;3.65;3.20;;;25.30;51.40;;;;;;5042612;28;20036;-82
2022/05/01 09:00:52;;;;;;;3.88;3.00;;;25.30;50.90;;;;;;5038412;28;20064;-82
2022/05/01 09:03:18;;;;;;;4.87;3.20;;;25.30;50.60;;;;;;5062605;28;20217;-82
2022/05/01 09:05:44;;;;;;;3.92;3.25;;;25.30;50.90;;;;;;5063080;28;20114;-82
2022/05/01 09:08:11;;;;;;;4.57;3.00;;;25.40;50.80;;;;;;5041559;28;20250;-82
2022/05/01 09:10:40;;;;;;;3.65;3.00;;;25.60;50.50;;;;;;5055485;28;20020;-82
2022/05/01 09:13:07;;;;;;;3.43;3.13;;;25.80;49.10;;;;;;5019662;28;20036;-82
2022/05/01 09:15:36;;;;;;;3.67;2.85;;;25.90;48.80;;;;;;5033678;28;20519;-82
2022/05/01 09:18:08;;;;;;;3.50;3.00;;;26.00;47.80;;;;;;5032319;28;20039;-81
2022/05/01 09:20:36;;;;;;;3.60;3.10;;;25.90;46.40;;;;;;5052197;28;20500;-82
2022/05/01 09:23:02;;;;;;;4.43;3.50;;;25.80;46.30;;;;;;5042031;28;20119;-81
2022/05/01 09:25:29;;;;;;;4.93;3.03;;;25.50;46.00;;;;;;5057523;28;20436;-82
2022/05/01 09:28:01;;;;;;;5.40;3.22;;;25.40;46.10;;;;;;5034379;28;20036;-82
2022/05/01 09:30:33;;;;;;;4.00;3.30;;;25.30;45.20;;;;;;5055910;28;20055;-82
2022/05/01 09:33:00;;;;;;;4.22;3.10;;;25.00;43.60;;;;;;5009354;28;20262;-82
2022/05/01 09:35:33;;;;;;;4.30;3.20;;;24.70;43.80;;;;;;5054125;28;20477;-82
2022/05/01 09:38:13;;;;;;;4.43;3.00;;;24.40;42.50;;;;;;5042458;28;20036;-82
2022/05/01 09:40:39;;;;;;;3.10;2.60;;;24.00;41.90;;;;;;5057030;28;20719;-82
2022/05/01 09:43:04;;;;;;;3.90;2.88;;;23.90;44.50;;;;;;5050180;28;20281;-82
2022/05/01 09:45:31;;;;;;;3.70;2.70;;;23.80;45.70;;;;;;5044079;28;20304;-83
2022/05/01 09:47:57;;;;;;;4.57;2.90;;;24.00;46.10;;;;;;5045040;28;20279;-82
2022/05/01 09:50:41;;;;;;;3.13;2.58;;;24.10;46.00;;;;;;5038245;28;20415;-82
2022/05/01 09:53:06;;;;;;;3.55;3.05;;;24.30;42.90;;;;;;5043637;28;20114;-82
2022/05/01 09:55:32;;;;;;;4.23;3.00;;;24.20;44.40;;;;;;5057546;28;20040;-82
2022/05/01 09:58:30;;;;;;;3.83;2.90;;;24.30;44.20;;;;;;5048121;28;20314;-82
2022/05/01 10:00:56;;;;;;;3.70;2.92;;;24.30;42.20;;;;;;5032789;28;20036;-82
2022/05/01 10:03:21;;;;;;;5.10;3.53;;;24.20;43.40;;;;;;5024380;28;20043;-82
2022/05/01 10:05:48;;;;;;;4.57;3.20;;;24.10;43.10;;;;;;5046877;28;20636;-82
2022/05/01 10:08:16;;;;;;;4.63;3.03;;;24.00;43.00;;;;;;5044776;28;20040;-82
2022/05/01 10:10:44;;;;;;;4.15;2.88;;;24.00;42.40;;;;;;5036421;28;21137;-82
2022/05/01 10:13:11;;;;;;;4.55;3.17;;;23.80;42.50;;;;;;5041791;28;20268;-82
2022/05/01 10:15:36;;;;;;;4.10;2.92;;;23.70;42.10;;;;;;5046477;28;20049;-82
2022/05/01 10:18:02;;;;;;;4.13;2.90;;;23.60;42.40;;;;;;5019277;28;20261;-82
2022/05/01 10:20:29;;;;;;;4.00;3.08;;;23.50;42.30;;;;;;5033648;28;20033;-82
2022/05/01 10:22:55;;;;;;;4.13;2.92;;;23.40;42.50;;;;;;5048985;28;20253;-82
2022/05/01 10:25:21;;;;;;;4.30;3.30;;;23.40;42.90;;;;;;5061187;28;20059;-82
2022/05/01 10:28:06;;;;;;;4.30;3.20;;;23.50;43.50;;;;;;5054518;28;20233;-82
2022/05/01 10:34:07;;;;;;;4.75;3.50;;;24.00;42.80;;;;;;5040066;28;20328;-82
2022/05/01 10:36:45;;;;;;;3.83;3.05;;;24.40;41.80;;;;;;5021319;28;20037;-82
2022/05/01 10:39:15;;;;;;;4.00;3.17;;;24.60;41.40;;;;;;5039210;28;20064;-82
2022/05/01 10:41:45;;;;;;;4.07;3.30;;;24.70;42.20;;;;;;5041423;28;20122;-82
2022/05/01 10:44:33;;;;;;;3.35;2.97;;;24.70;41.30;;;;;;5042462;28;20093;-82
2022/05/01 10:47:05;;;;;;;3.90;2.85;;;24.70;40.60;;;;;;5045855;28;20036;-82
2022/05/01 10:49:41;;;;;;;4.53;3.15;;;24.70;40.60;;;;;;5031385;28;20392;-82
2022/05/01 10:52:33;;;;;;;4.55;3.17;;;24.70;40.00;;;;;;5065508;28;20477;-82
2022/05/01 10:55:07;;;;;;;3.27;2.60;;;24.60;38.30;;;;;;5039369;28;20048;-81
2022/05/01 10:57:33;;;;;;;3.70;3.30;;;24.50;40.40;;;;;;5046029;28;20060;-82
2022/05/01 11:00:13;;;;;;;4.20;2.90;;;24.30;40.10;;;;;;5026173;28;20086;-82
2022/05/01 11:02:46;;;;;;;4.97;2.97;;;24.10;39.00;;;;;;5052252;28;20051;-82
2022/05/01 11:05:45;;;;;;;3.75;2.80;;;24.00;39.30;;;;;;5044685;28;20481;-82
2022/05/01 11:08:29;;;;;;;4.40;3.20;;;23.80;38.70;;;;;;5051295;28;20029;-82
2022/05/01 11:10:58;;;;;;;3.90;3.13;;;23.50;38.80;;;;;;5060139;28;20032;-82
2022/05/01 11:13:45;;;;;;;4.65;3.17;;;23.40;39.60;;;;;;5039785;28;20566;-82
2022/05/01 11:16:11;;;;;;;5.00;3.00;;;23.20;40.10;;;;;;5035342;28;20147;-82
2022/05/01 11:18:42;;;;;;;4.27;3.00;;;23.20;40.60;;;;;;5059205;28;20123;-82
2022/05/01 11:21:20;;;;;;;4.30;3.20;;;23.20;40.00;;;;;;5036353;28;20102;-81
2022/05/01 11:23:56;;;;;;;4.80;2.90;;;23.10;39.80;;;;;;5040019;28;20051;-82
2022/05/01 11:26:22;;;;;;;4.32;2.80;;;23.10;40.60;;;;;;5059196;28;20257;-81
2022/05/01 11:28:50;;;;;;;4.20;3.00;;;23.10;40.40;;;;;;5069863;28;20032;-81
2022/05/01 11:31:48;;;;;;;4.47;3.15;;;23.10;40.80;;;;;;5020714;28;20075;-81
2022/05/01 11:34:18;;;;;;;4.50;3.00;;;23.30;39.90;;;;;;5027122;28;20051;-81
2022/05/01 11:36:50;;;;;;;4.18;3.00;;;23.50;41.20;;;;;;5020973;28;20384;-81
2022/05/01 11:39:16;;;;;;;3.70;2.80;;;23.70;41.00;;;;;;5051005;28;20507;-81
2022/05/01 11:41:42;;;;;;;4.00;3.10;;;24.00;42.60;;;;;;5034403;28;22693;-80
2022/05/01 11:44:24;;;;;;;4.03;3.05;;;24.50;42.90;;;;;;5042461;28;20029;-80
2022/05/01 11:46:53;;;;;;;3.97;3.10;;;25.00;40.60;;;;;;5029887;28;20511;-81
2022/05/01 11:49:19;;;;;;;4.30;2.70;;;25.50;43.30;;;;;;5048963;28;20119;-80
2022/05/01 11:51:47;;;;;;;3.55;2.90;;;26.10;42.70;;;;;;5051945;28;20028;-81
2022/05/01 11:54:15;;;;;;;3.72;2.78;;;26.60;42.40;;;;;;5040350;28;20028;-81
2022/05/01 12:02:25;;;;;;;3.10;2.77;;;28.30;41.10;;;;;;5041350;28;20032;-81
2022/05/01 12:04:51;;;;;;;3.30;2.78;;;28.60;37.60;;;;;;5061299;28;20032;-81
2022/05/01 12:07:18;;;;;;;3.67;2.95;;;28.70;38.20;;;;;;5031473;28;20028;-81
2022/05/01 12:09:46;;;;;;;4.13;3.20;;;28.70;36.50;;;;;;5034651;28;20135;-80
2022/05/01 12:12:17;;;;;;;3.43;2.93;;;28.50;35.80;;;;;;5033315;28;20029;-83
2022/05/01 12:14:43;;;;;;;3.72;2.92;;;28.40;35.10;;;;;;5071003;28;20047;-83
2022/05/01 12:17:18;;;;;;;3.35;2.88;;;28.20;35.90;;;;;;5013976;28;21738;-83
2022/05/01 12:19:49;;;;;;;3.45;3.15;;;28.10;35.50;;;;;;5048965;28;20029;-83
2022/05/01 12:22:16;;;;;;;4.22;3.20;;;28.00;35.40;;;;;;5036694;28;20035;-83
2022/05/01 12:24:43;;;;;;;3.70;2.87;;;27.90;35.20;;;;;;5025231;28;20040;-83
2022/05/01 12:27:11;;;;;;;3.42;2.97;;;27.80;35.20;;;;;;5036373;28;20177;-83
2022/05/01 12:29:41;;;;;;;4.15;2.80;;;27.80;35.00;;;;;;5031106;28;20032;-83
2022/05/01 12:32:14;;;;;;;3.25;2.90;;;27.70;35.20;;;;;;5055003;28;20032;-83
2022/05/01 12:34:52;;;;;;;4.05;3.03;;;27.60;34.30;;;;;;5049568;28;20043;-83
2022/05/01 12:37:22;;;;;;;3.80;2.90;;;27.60;34.20;;;;;;5039288;28;20056;-84
2022/05/01 12:39:59;;;;;;;3.50;2.97;;;27.50;35.10;;;;;;5043198;28;20267;-84
2022/05/01 12:45:20;;;;;;;3.85;3.08;;;27.60;34.70;;;;;;5050965;28;20770;-83
2022/05/01 12:47:50;;;;;;;3.72;2.90;;;27.60;34.20;;;;;;5027678;28;20130;-83
2022/05/01 12:50:18;;;;;;;3.80;3.00;;;27.60;34.40;;;;;;5038827;28;20052;-83
2022/05/01 12:52:51;;;;;;;3.75;3.10;;;27.50;33.70;;;;;;5044236;28;20126;-83
2022/05/01 12:55:19;;;;;;;3.30;2.95;;;27.30;33.40;;;;;;5024465;28;20028;-83
2022/05/01 12:57:58;;;;;;;3.53;2.92;;;27.10;33.60;;;;;;5025314;28;20276;-83
2022/05/01 13:00:45;;;;;;;3.78;3.30;;;26.90;33.00;;;;;;5032325;28;20043;-83
2022/05/01 13:03:20;;;;;;;3.90;3.00;;;26.80;33.50;;;;;;5058638;28;20038;-83
2022/05/01 13:06:01;;;;;;;3.83;3.10;;;26.60;33.90;;;;;;5023508;28;20201;-83
2022/05/01 13:08:30;;;;;;;3.70;3.00;;;26.40;32.80;;;;;;5059111;28;20068;-83
2022/05/01 13:11:15;;;;;;;3.58;3.20;;;26.40;33.80;;;;;;5045010;28;20040;-83
2022/05/01 13:13:46;;;;;;;3.85;3.20;;;26.30;32.70;;;;;;5058920;28;20420;-83
2022/05/01 13:16:12;;;;;;;3.33;2.77;;;26.20;33.10;;;;;;5056017;28;20036;-83
2022/05/01 13:18:39;;;;;;;3.65;2.83;;;26.00;33.30;;;;;;5035725;28;20045;-83
2022/05/01 13:21:06;;;;;;;3.80;3.10;;;25.90;33.30;;;;;;5028157;28;20031;-83
2022/05/01 13:23:31;;;;;;;4.10;3.13;;;25.80;33.60;;;;;;5071408;28;20025;-84